createdAt,value
2023-10-06T00:01:35.854Z,12.57
2023-10-06T00:06:39.785Z,14.23
2023-10-06T00:11:42.711Z,14.43
2023-10-06T00:16:45.161Z,13.55
2023-10-06T00:21:48.669Z,14.05
2023-10-06T00:26:53.185Z,13.57
2023-10-06T00:32:02.868Z,13.88
2023-10-06T00:37:11.606Z,13.00
2023-10-06T00:42:17.123Z,12.85
2023-10-06T00:47:20.050Z,12.95
2023-10-06T00:52:23.547Z,13.57
2023-10-06T00:57:26.004Z,13.70
2023-10-06T01:02:29.452Z,14.95
2023-10-06T01:07:31.999Z,12.05
2023-10-06T01:12:37.323Z,13.73
2023-10-06T01:17:40.149Z,13.20
2023-10-06T01:22:46.713Z,13.88
2023-10-06T01:27:51.728Z,13.38
2023-10-06T01:32:54.781Z,13.30
2023-10-06T01:38:00.624Z,13.88
2023-10-06T01:43:12.073Z,13.85
2023-10-06T01:48:14.360Z,14.63
2023-10-06T01:53:23.068Z,14.88
2023-10-06T01:58:25.936Z,16.27
2023-10-06T02:03:29.586Z,13.55
2023-10-06T02:08:32.994Z,13.52
2023-10-06T02:13:37.659Z,13.90
2023-10-06T02:18:41.931Z,12.95
2023-10-06T02:23:45.618Z,12.20
2023-10-06T02:28:51.585Z,12.68
2023-10-06T02:33:54.942Z,12.50
2023-10-06T02:38:57.858Z,13.38
2023-10-06T02:44:16.204Z,13.10
2023-10-06T02:49:40.203Z,12.68
2023-10-06T02:54:48.306Z,13.27
2023-10-06T02:59:58.029Z,13.38
2023-10-06T03:05:12.242Z,13.95
2023-10-06T03:10:20.153Z,13.82
2023-10-06T03:15:39.647Z,12.95
2023-10-06T03:20:43.704Z,13.73
2023-10-06T03:25:51.164Z,13.57
2023-10-06T03:30:54.131Z,13.57
2023-10-06T03:35:59.610Z,13.90
2023-10-06T03:41:20.069Z,13.60
2023-10-06T03:46:25.564Z,13.35
2023-10-06T03:51:31.070Z,14.05
2023-10-06T03:56:33.794Z,13.88
2023-10-06T04:01:39.689Z,13.90
2023-10-06T04:06:43.005Z,13.90
2023-10-06T04:11:48.460Z,14.15
2023-10-06T04:16:52.183Z,14.18
2023-10-06T04:21:55.068Z,14.10
2023-10-06T04:26:57.954Z,14.23
2023-10-06T04:32:00.787Z,13.00
2023-10-06T04:37:05.238Z,11.98
2023-10-06T04:42:08.941Z,12.43
2023-10-06T04:47:11.438Z,13.40
2023-10-06T04:52:14.925Z,12.27
2023-10-06T04:57:17.242Z,11.68
2023-10-06T05:02:20.829Z,11.43
2023-10-06T05:07:25.979Z,11.30
2023-10-06T05:12:29.268Z,10.40
2023-10-06T05:17:32.224Z,9.43
2023-10-06T05:22:36.046Z,8.82
2023-10-06T05:27:40.404Z,9.75
2023-10-06T05:32:44.927Z,11.30
2023-10-06T05:37:49.495Z,8.85
2023-10-06T05:42:52.413Z,9.15
2023-10-06T05:47:56.570Z,9.10
2023-10-06T05:53:03.016Z,11.25
2023-10-06T05:58:11.079Z,8.23
2023-10-06T06:03:14.688Z,8.55
2023-10-06T06:08:17.651Z,12.70
2023-10-06T06:13:22.975Z,7.70
2023-10-06T06:18:28.918Z,8.60
2023-10-06T06:23:36.739Z,7.57
2023-10-06T06:28:41.329Z,7.53
2023-10-06T06:38:47.761Z,8.65
2023-10-06T06:43:51.557Z,8.38
2023-10-06T06:48:55.363Z,9.65
2023-10-06T06:53:59.087Z,9.25
2023-10-06T06:59:02.487Z,8.93
2023-10-06T07:04:05.245Z,9.80
2023-10-06T07:09:14.342Z,10.13
2023-10-06T07:14:17.585Z,7.97
2023-10-06T07:19:21.103Z,8.00
2023-10-06T07:24:24.356Z,7.50
2023-10-06T07:29:27.257Z,7.13
2023-10-06T07:34:29.620Z,5.90
2023-10-06T07:39:33.250Z,5.72
2023-10-06T07:44:37.245Z,7.22
2023-10-06T07:49:41.752Z,5.55
2023-10-06T07:59:48.666Z,5.65
2023-10-06T08:04:54.002Z,5.05
2023-10-06T08:10:01.142Z,4.43
2023-10-06T08:15:11.449Z,4.90
2023-10-06T08:20:16.565Z,4.35
2023-10-06T08:25:20.089Z,4.65
2023-10-06T08:30:24.559Z,3.75
2023-10-06T08:35:27.977Z,3.55
2023-10-06T08:40:35.018Z,2.90
2023-10-06T08:45:46.202Z,3.17
2023-10-06T08:50:50.741Z,3.60
2023-10-06T08:55:54.746Z,3.70
2023-10-06T09:01:01.134Z,3.67
2023-10-06T09:06:05.077Z,2.70
2023-10-06T09:11:07.631Z,3.00
2023-10-06T09:16:11.679Z,3.10
2023-10-06T09:21:15.416Z,3.22
2023-10-06T09:26:31.529Z,2.60
2023-10-06T09:31:37.704Z,2.22
2023-10-06T09:36:46.150Z,9.50
2023-10-06T09:41:51.094Z,2.47
2023-10-06T09:46:54.772Z,2.90
2023-10-06T09:52:05.245Z,2.92
2023-10-06T09:57:09.123Z,2.78
2023-10-06T10:02:16.209Z,3.38
2023-10-06T10:07:21.604Z,2.80
2023-10-06T10:13:09.591Z,2.83
2023-10-06T10:18:41.447Z,2.58
2023-10-06T10:23:46.065Z,7.28
2023-10-06T10:29:19.946Z,2.95
2023-10-06T10:34:25.493Z,4.40
2023-10-06T10:39:43.144Z,2.80
2023-10-06T10:44:50.436Z,2.83
2023-10-06T10:49:54.262Z,4.78
2023-10-06T10:54:57.577Z,3.17
2023-10-06T11:00:10.071Z,3.00
2023-10-06T11:05:15.806Z,2.70
2023-10-06T11:10:21.281Z,2.40
2023-10-06T11:20:38.339Z,2.95
2023-10-06T11:25:51.683Z,3.03
2023-10-06T11:30:55.354Z,2.97
2023-10-06T11:35:59.865Z,2.88
2023-10-06T11:41:02.582Z,3.22
2023-10-06T11:46:07.412Z,3.05
2023-10-06T11:51:14.669Z,3.40
2023-10-06T11:56:17.426Z,4.30
2023-10-06T12:01:35.188Z,7.50
2023-10-06T12:06:44.554Z,4.20
2023-10-06T12:11:48.545Z,3.83
2023-10-06T12:16:51.515Z,3.53
2023-10-06T12:21:55.929Z,4.20
2023-10-06T12:27:00.238Z,3.95
2023-10-06T12:32:05.351Z,4.15
2023-10-06T12:37:10.505Z,6.03
2023-10-06T12:42:18.678Z,4.75
2023-10-06T12:47:23.483Z,3.63
2023-10-06T12:52:26.371Z,5.38
2023-10-06T12:57:30.243Z,6.07
2023-10-06T13:02:33.796Z,4.60
2023-10-06T13:07:37.686Z,4.47
2023-10-06T13:12:41.336Z,5.30
2023-10-06T13:17:45.876Z,4.55
2023-10-06T13:22:52.127Z,5.13
2023-10-06T13:27:55.246Z,4.82
2023-10-06T13:32:59.077Z,5.10
2023-10-06T13:38:02.975Z,4.40
2023-10-06T13:43:12.912Z,5.38
2023-10-06T13:48:24.250Z,5.72
2023-10-06T13:53:27.031Z,6.63
2023-10-06T13:58:31.810Z,6.30
2023-10-06T14:03:34.403Z,7.07
2023-10-06T14:08:37.846Z,6.47
2023-10-06T14:13:45.270Z,6.82
2023-10-06T14:18:47.752Z,8.23
2023-10-06T14:23:54.604Z,9.35
2023-10-06T14:28:57.513Z,10.30
2023-10-06T14:34:21.001Z,11.13
2023-10-06T14:39:42.395Z,11.77
2023-10-06T14:45:03.557Z,9.70
2023-10-06T14:50:13.438Z,10.10
